Time;durP1;ratioP1;P1;durP2;ratioP2;P2;SDS_P1;SDS_P2;PMS_P1;PMS_P2;Temp;Humidity;BMP_temperature;BMP_pressure;BME280_temperature;BME280_humidity;BME280_pressure;Samples;Min_cycle;Max_cycle;Signal;HPM_P1;HPM_P2
2023/07/14 00:00:23;;;;;;;10.32;8.10;;;;;;;22.28;73.17;96320.75;5117111;28;20051;-66
2023/07/14 00:02:54;;;;;;;10.07;7.85;;;;;;;22.27;73.17;96316.41;5117111;28;20047;-65
2023/07/14 00:05:25;;;;;;;9.93;7.45;;;;;;;22.21;72.58;96301.81;5117057;28;20047;-66
2023/07/14 00:07:54;;;;;;;11.13;7.53;;;;;;;22.20;73.48;96304.59;5116838;28;20048;-66
2023/07/14 00:10:25;;;;;;;17.17;8.55;;;;;;;22.10;73.71;96312.59;5116918;28;20048;-66
2023/07/14 00:12:53;;;;;;;12.40;8.00;;;;;;;22.05;73.38;96310.34;5116950;28;20047;-65
2023/07/14 00:15:22;;;;;;;18.30;8.07;;;;;;;22.01;73.52;96314.25;5116799;28;20047;-66
2023/07/14 00:17:53;;;;;;;13.98;8.65;;;;;;;21.99;73.27;96310.00;5116878;28;20048;-65
2023/07/14 00:20:24;;;;;;;11.32;8.50;;;;;;;22.00;73.65;96309.06;5117027;28;20096;-66
2023/07/14 00:22:52;;;;;;;11.02;8.02;;;;;;;22.02;73.77;96307.94;5116828;28;20054;-65
2023/07/14 00:25:22;;;;;;;8.43;7.57;;;;;;;22.04;73.67;96311.31;5116550;28;20524;-66
2023/07/14 00:27:50;;;;;;;12.75;8.15;;;;;;;22.00;73.74;96301.06;5116576;28;20066;-65
2023/07/14 00:30:19;;;;;;;13.75;8.40;;;;;;;22.00;73.74;96301.06;5116608;28;20072;-66
2023/07/14 00:32:47;;;;;;;12.50;8.02;;;;;;;21.96;73.71;96296.00;5116424;28;20051;-65
2023/07/14 00:35:25;;;;;;;13.80;7.80;;;;;;;21.92;73.57;96294.59;5116402;28;20130;-66
2023/07/14 00:37:54;;;;;;;11.23;8.73;;;;;;;21.91;73.70;96292.09;5115756;28;20048;-66
2023/07/14 00:40:23;;;;;;;16.73;8.85;;;;;;;21.90;73.68;96282.38;5116169;28;20413;-65
2023/07/14 00:42:55;;;;;;;13.85;8.18;;;;;;;21.93;74.08;96292.78;5116291;28;20048;-65
2023/07/14 00:45:23;;;;;;;10.57;8.43;;;;;;;21.88;74.07;96297.69;5116264;28;20122;-65
2023/07/14 00:47:55;;;;;;;16.48;8.40;;;;;;;21.83;74.21;96288.25;5116442;28;20055;-66
2023/07/14 00:50:30;;;;;;;11.63;8.05;;;;;;;21.84;73.87;96281.13;5116063;28;20546;-66
2023/07/14 00:53:00;;;;;;;11.30;8.15;;;;;;;21.79;74.33;96281.53;5116262;28;20071;-66
2023/07/14 00:55:41;;;;;;;14.13;9.15;;;;;;;21.78;74.38;96284.31;5116049;28;20523;-66
2023/07/14 00:58:15;;;;;;;11.70;8.68;;;;;;;21.77;74.58;96285.31;5115723;28;20044;-65
2023/07/14 01:01:01;;;;;;;10.40;8.98;;;;;;;21.74;74.83;96280.22;5116056;28;20044;-66
2023/07/14 01:03:28;;;;;;;12.68;8.18;;;;;;;21.69;74.29;96292.13;5115914;28;20093;-66
2023/07/14 01:06:00;;;;;;;11.82;9.10;;;;;;;21.67;74.47;96288.72;5115807;28;20123;-65
2023/07/14 01:08:28;;;;;;;8.80;7.90;;;;;;;21.66;74.68;96278.22;5115541;28;20100;-66
2023/07/14 01:10:59;;;;;;;15.05;8.90;;;;;;;21.64;74.38;96283.69;5115777;28;20044;-66
2023/07/14 01:13:27;;;;;;;10.00;8.07;;;;;;;21.68;74.52;96271.81;5115707;28;20039;-66
2023/07/14 01:15:55;;;;;;;11.68;8.57;;;;;;;21.69;74.12;96277.97;5115755;28;20477;-66
2023/07/14 01:18:22;;;;;;;13.75;8.93;;;;;;;21.64;74.31;96278.34;5115617;28;20081;-65
2023/07/14 01:20:50;;;;;;;11.00;8.65;;;;;;;21.58;74.38;96285.06;5115755;28;20087;-65
2023/07/14 01:23:46;;;;;;;13.60;8.57;;;;;;;21.53;74.11;96273.13;5115757;27;20116;-65
2023/07/14 01:26:26;;;;;;;10.18;9.00;;;;;;;21.54;74.54;96275.66;5113132;28;20130;-65
2023/07/14 01:28:56;;;;;;;13.60;8.73;;;;;;;21.53;74.89;96276.66;5115717;28;20126;-66
2023/07/14 01:31:24;;;;;;;15.90;8.70;;;;;;;21.54;74.89;96265.03;5115303;28;20126;-66
2023/07/14 01:33:53;;;;;;;10.20;8.00;;;;;;;21.53;74.67;96267.81;5115263;27;20048;-66
2023/07/14 01:36:23;;;;;;;11.65;8.73;;;;;;;21.53;74.50;96259.84;5115432;28;20134;-66
2023/07/14 01:38:50;;;;;;;10.68;8.55;;;;;;;21.53;74.70;96265.16;5115496;28;20123;-66
2023/07/14 01:41:18;;;;;;;11.40;8.40;;;;;;;21.53;74.80;96265.16;5115522;28;20097;-65
2023/07/14 01:43:46;;;;;;;11.88;8.80;;;;;;;21.53;74.76;96271.34;5115252;28;20117;-66
2023/07/14 01:46:19;;;;;;;9.75;7.95;;;;;;;21.51;74.26;96267.94;5115066;28;20047;-66
2023/07/14 01:49:03;;;;;;;10.30;8.55;;;;;;;21.40;74.92;96273.38;5115170;28;20043;-66
2023/07/14 01:51:35;;;;;;;11.35;8.45;;;;;;;21.36;74.84;96266.59;5114769;28;20043;-66
2023/07/14 01:54:06;;;;;;;14.10;8.52;;;;;;;21.35;74.63;96257.81;5114861;28;20040;-65
2023/07/14 01:56:38;;;;;;;15.18;9.10;;;;;;;21.33;75.07;96249.97;5114853;28;20052;-66
2023/07/14 01:59:09;;;;;;;10.88;8.18;;;;;;;21.31;75.00;96248.41;5114748;28;20040;-66
2023/07/14 02:01:41;;;;;;;14.48;9.13;;;;;;;21.32;75.23;96258.06;5114789;28;20513;-66
2023/07/14 02:04:17;;;;;;;10.15;8.40;;;;;;;21.29;74.92;96261.84;5114684;28;20047;-66
2023/07/14 02:06:44;;;;;;;18.40;8.10;;;;;;;21.25;74.90;96262.25;5114829;28;20043;-66
2023/07/14 02:09:18;;;;;;;11.73;8.63;;;;;;;21.06;75.83;96263.81;5114622;28;20104;-66
2023/07/14 02:11:48;;;;;;;10.13;8.82;;;;;;;20.99;76.33;96265.31;5114538;28;20631;-65
2023/07/14 02:14:18;;;;;;;11.38;8.73;;;;;;;21.00;76.03;96280.25;5114506;28;20055;-65
2023/07/14 02:16:48;;;;;;;19.02;9.77;;;;;;;20.99;76.07;96273.28;5114811;28;21204;-66
2023/07/14 02:19:20;;;;;;;13.77;9.02;;;;;;;20.99;75.98;96274.13;5114372;28;20139;-66
2023/07/14 02:21:47;;;;;;;10.63;9.18;;;;;;;20.98;76.13;96275.06;5114427;27;20056;-66
2023/07/14 02:24:20;;;;;;;11.63;8.63;;;;;;;20.98;76.04;96277.75;5114404;28;20047;-65
2023/07/14 02:26:50;;;;;;;11.27;9.90;;;;;;;20.95;75.97;96276.19;5114256;28;20079;-66
2023/07/14 02:29:17;;;;;;;;;;;;;;;20.96;76.57;96279.69;5114787;28;20062;-66
2023/07/14 02:31:52;;;;;;;13.55;8.70;;;;;;;20.94;76.26;96271.84;5114187;28;20428;-66
2023/07/14 02:34:20;;;;;;;10.23;9.10;;;;;;;20.92;76.56;96265.81;5114162;28;20470;-66
2023/07/14 02:36:58;;;;;;;12.48;8.82;;;;;;;20.91;76.62;96264.13;5114126;28;20048;-66
2023/07/14 02:39:26;;;;;;;13.63;9.32;;;;;;;20.93;76.12;96271.97;5114328;28;20106;-66
2023/07/14 02:41:57;;;;;;;13.68;8.85;;;;;;;20.91;76.05;96277.44;5114215;28;20043;-66
2023/07/14 02:44:30;;;;;;;14.32;9.13;;;;;;;20.90;76.52;96283.72;5114135;28;20066;-66
2023/07/14 02:47:03;;;;;;;13.70;8.75;;;;;;;20.89;76.42;96283.81;5114085;28;20545;-66
2023/07/14 02:49:30;;;;;;;10.27;8.48;;;;;;;20.84;76.17;96276.22;5113846;28;20050;-66
2023/07/14 02:51:57;;;;;;;13.27;8.80;;;;;;;20.82;76.48;96272.84;5114180;28;20058;-66
2023/07/14 02:54:25;;;;;;;12.35;8.77;;;;;;;20.90;76.57;96270.44;5113891;28;20108;-66
2023/07/14 02:56:53;;;;;;;10.45;9.18;;;;;;;20.93;76.95;96271.97;5113898;28;20051;-66
2023/07/14 02:59:20;;;;;;;11.20;8.88;;;;;;;20.94;76.72;96268.34;5113787;28;20057;-66
2023/07/14 03:01:48;;;;;;;13.98;9.18;;;;;;;20.94;76.43;96265.69;5113133;28;20405;-65
2023/07/14 03:04:16;;;;;;;13.23;8.63;;;;;;;20.92;77.41;96272.97;5113814;28;20071;-65
2023/07/14 03:06:43;;;;;;;14.13;9.40;;;;;;;20.89;76.77;96282.00;5113623;28;20126;-65
2023/07/14 03:09:10;;;;;;;10.48;8.95;;;;;;;20.92;77.47;96283.59;5113784;28;20083;-66
2023/07/14 03:11:37;;;;;;;10.80;8.95;;;;;;;20.91;77.12;96289.88;5113880;28;20130;-66
2023/07/14 03:14:05;;;;;;;14.18;9.68;;;;;;;20.91;77.30;96289.88;5113518;28;20043;-66
2023/07/14 03:16:32;;;;;;;10.77;8.07;;;;;;;20.93;76.92;96295.91;5113627;28;20047;-66
2023/07/14 03:18:59;;;;;;;14.15;9.43;;;;;;;20.92;77.00;96299.53;5113826;28;20043;-66
2023/07/14 03:21:28;;;;;;;10.70;9.48;;;;;;;20.97;77.32;96310.63;5113586;28;20052;-66
2023/07/14 03:23:55;;;;;;;12.18;9.73;;;;;;;21.06;77.62;96317.81;5113542;28;20109;-66
2023/07/14 03:26:22;;;;;;;12.48;9.00;;;;;;;21.09;77.13;96322.03;5113534;28;20043;-65
2023/07/14 03:28:49;;;;;;;11.77;9.70;;;;;;;21.10;77.10;96333.53;5113538;28;20044;-66
2023/07/14 03:31:16;;;;;;;12.32;9.73;;;;;;;21.16;77.02;96330.34;5113380;28;20096;-66
2023/07/14 03:33:43;;;;;;;14.98;9.50;;;;;;;21.17;77.87;96334.69;5113373;28;20097;-65
2023/07/14 03:36:13;;;;;;;13.40;8.95;;;;;;;21.27;78.16;96340.06;5113606;28;20458;-66
2023/07/14 03:38:44;;;;;;;13.95;8.82;;;;;;;21.39;77.60;96347.00;5113290;28;20055;-66
2023/07/14 03:41:12;;;;;;;15.82;9.18;;;;;;;21.51;77.60;96349.56;5113419;28;20048;-66
2023/07/14 03:43:39;;;;;;;10.80;8.20;;;;;;;21.61;77.08;96347.81;5113517;28;20138;-66
2023/07/14 03:46:07;;;;;;;12.50;8.50;;;;;;;21.74;76.41;96352.94;5113280;28;20126;-66
2023/07/14 03:48:34;;;;;;;11.57;9.00;;;;;;;21.89;75.78;96353.44;5113428;28;20063;-66
2023/07/14 03:51:02;;;;;;;11.35;7.90;;;;;;;22.02;75.76;96350.53;5113187;28;20044;-66
2023/07/14 03:53:29;;;;;;;9.40;7.57;;;;;;;22.22;75.12;96354.09;5113268;28;20044;-66
2023/07/14 03:55:58;;;;;;;9.40;7.30;;;;;;;22.42;74.83;96363.94;5113046;28;20519;-66
2023/07/14 03:58:27;;;;;;;9.65;7.75;;;;;;;22.68;73.98;96366.97;5113436;28;20071;-66
2023/07/14 04:01:00;;;;;;;9.93;8.02;;;;;;;22.92;72.50;96372.88;5113156;28;20473;-65
2023/07/14 04:03:27;;;;;;;11.50;7.32;;;;;;;23.17;71.82;96359.94;5113449;28;20070;-66
2023/07/14 04:05:54;;;;;;;14.88;7.95;;;;;;;23.42;70.49;96377.22;5113261;28;20049;-66
2023/07/14 04:08:22;;;;;;;11.82;7.97;;;;;;;23.69;69.93;96372.13;5113158;28;20082;-66
2023/07/14 04:10:49;;;;;;;10.80;7.28;;;;;;;23.97;68.65;96377.50;5113030;28;20047;-66
2023/07/14 04:13:18;;;;;;;13.18;8.25;;;;;;;24.26;67.56;96373.84;5114968;28;20447;-66
2023/07/14 04:15:45;;;;;;;10.40;7.35;;;;;;;24.50;66.98;96375.13;5116850;28;20070;-66
2023/07/14 04:18:12;;;;;;;12.10;8.38;;;;;;;24.78;66.47;96371.56;5116807;28;20047;-66
2023/07/14 04:20:39;;;;;;;14.25;8.38;;;;;;;25.11;65.57;96371.91;5116754;28;20048;-66
2023/07/14 04:23:06;;;;;;;8.65;7.75;;;;;;;25.47;65.15;96374.50;5116774;28;20130;-66
2023/07/14 04:25:35;;;;;;;10.90;6.88;;;;;;;25.84;64.65;96377.97;5117073;28;20043;-66
2023/07/14 04:28:02;;;;;;;11.60;7.95;;;;;;;26.12;62.74;96384.97;5116635;28;20077;-66
2023/07/14 04:30:31;;;;;;;10.57;7.30;;;;;;;26.36;62.01;96386.94;5116651;28;20054;-66
2023/07/14 04:32:59;;;;;;;11.18;7.18;;;;;;;26.64;61.14;96387.69;5116578;28;20405;-67
2023/07/14 04:35:28;;;;;;;8.20;7.00;;;;;;;26.90;60.86;96386.75;5116391;28;20048;-67
2023/07/14 04:37:55;;;;;;;13.25;7.82;;;;;;;27.10;60.55;96388.16;5116419;28;20048;-66
2023/07/14 04:40:23;;;;;;;9.15;7.57;;;;;;;27.33;60.02;96392.00;5116409;28;20126;-66
2023/07/14 04:42:50;;;;;;;11.13;7.90;;;;;;;27.62;59.58;96390.63;5116300;28;20100;-67
2023/07/14 04:45:17;;;;;;;10.18;7.05;;;;;;;27.99;58.92;96396.47;5116314;28;20511;-66
2023/07/14 04:47:46;;;;;;;10.50;6.95;;;;;;;28.34;58.25;96398.88;5116563;28;20048;-67
2023/07/14 04:50:14;;;;;;;10.80;7.70;;;;;;;28.65;56.38;96411.50;5116179;28;20051;-67
2023/07/14 04:52:41;;;;;;;12.25;7.32;;;;;;;28.97;55.58;96422.28;5116427;28;20079;-67
2023/07/14 04:55:08;;;;;;;11.50;8.15;;;;;;;29.21;54.80;96420.44;5116047;28;20485;-67
2023/07/14 04:57:35;;;;;;;12.35;8.43;;;;;;;29.48;53.37;96421.75;5116040;28;20134;-67
2023/07/14 05:00:05;;;;;;;13.35;8.63;;;;;;;29.62;51.33;96430.09;5116055;28;20048;-67
2023/07/14 05:02:32;;;;;;;10.13;8.90;;;;;;;29.77;50.37;96432.81;5115942;28;20044;-66
2023/07/14 05:05:15;;;;;;;11.18;8.93;;;;;;;29.90;51.54;96442.94;5115841;28;20123;-67
2023/07/14 05:07:42;;;;;;;10.00;8.40;;;;;;;30.03;51.50;96436.91;5115895;28;20095;-67
2023/07/14 05:10:10;;;;;;;13.30;8.18;;;;;;;30.12;51.14;96429.56;5115910;28;20065;-67
2023/07/14 05:12:37;;;;;;;14.50;8.88;;;;;;;30.35;52.72;96428.69;5115780;28;20040;-66
2023/07/14 05:15:05;;;;;;;13.30;8.10;;;;;;;30.52;52.35;96430.16;5115695;28;20079;-67
2023/07/14 05:17:35;;;;;;;14.45;8.50;;;;;;;30.77;52.71;96421.78;5115773;28;20047;-67
2023/07/14 05:20:03;;;;;;;;;;;;;;;31.05;52.60;96424.75;5116098;28;20048;-68
2023/07/14 05:22:31;;;;;;;9.82;7.97;;;;;;;31.31;52.62;96420.63;5115508;28;20274;-67
2023/07/14 05:24:58;;;;;;;11.68;8.25;;;;;;;31.62;51.38;96417.63;5114923;28;20527;-67
2023/07/14 05:27:26;;;;;;;13.80;6.82;;;;;;;31.78;50.88;96413.78;5115609;28;20047;-67
2023/07/14 05:29:53;;;;;;;9.85;7.38;;;;;;;31.90;51.90;96424.03;5115402;28;20504;-67
2023/07/14 05:32:21;;;;;;;12.40;7.45;;;;;;;32.02;50.56;96421.66;5115358;28;20055;-67
2023/07/14 05:34:48;;;;;;;20.33;7.25;;;;;;;32.18;45.92;96427.81;5115236;28;20126;-67
2023/07/14 05:37:15;;;;;;;9.60;6.90;;;;;;;32.34;47.52;96424.78;5115632;28;20047;-67
2023/07/14 05:39:45;;;;;;;12.63;7.18;;;;;;;32.59;47.79;96426.19;5115367;28;20048;-67
2023/07/14 05:42:13;;;;;;;15.98;7.18;;;;;;;32.86;42.69;96437.06;5115488;28;20090;-67
2023/07/14 05:44:41;;;;;;;16.02;7.15;;;;;;;32.82;38.88;96433.13;5115149;28;20047;-68
2023/07/14 05:47:09;;;;;;;18.08;7.25;;;;;;;32.97;40.34;96441.06;5115126;28;20063;-67
2023/07/14 05:49:37;;;;;;;14.82;7.03;;;;;;;32.84;38.04;96431.88;5115065;28;20047;-67
2023/07/14 05:52:04;;;;;;;17.75;7.15;;;;;;;32.65;36.72;96447.00;5114993;28;20051;-67
2023/07/14 05:54:32;;;;;;;16.48;7.40;;;;;;;32.60;39.53;96435.97;5114855;28;20051;-67
2023/07/14 05:57:00;;;;;;;16.98;6.95;;;;;;;32.46;37.59;96433.16;5114902;28;20083;-67
2023/07/14 05:59:28;;;;;;;25.20;8.23;;;;;;;32.52;37.81;96445.06;5114840;28;20058;-67
2023/07/14 06:01:55;;;;;;;10.80;7.53;;;;;;;32.45;39.14;96442.31;5115010;28;20086;-67
2023/07/14 06:04:23;;;;;;;18.38;7.90;;;;;;;32.52;38.27;96445.06;5114726;28;20130;-68
2023/07/14 06:06:50;;;;;;;12.70;7.60;;;;;;;32.47;39.59;96436.72;5114856;28;20052;-68
2023/07/14 06:09:17;;;;;;;20.52;7.20;;;;;;;32.61;38.49;96448.44;5114810;28;20047;-68
2023/07/14 06:11:45;;;;;;;17.35;7.38;;;;;;;32.86;38.47;96437.06;5114796;28;20046;-67
2023/07/14 06:14:13;;;;;;;20.63;7.40;;;;;;;32.94;38.24;96439.63;5114787;28;20069;-67
2023/07/14 06:16:41;;;;;;;17.40;8.05;;;;;;;33.08;38.16;96448.63;5114416;28;20100;-68
2023/07/14 06:19:08;;;;;;;17.42;7.65;;;;;;;33.07;38.05;96441.53;5114490;27;20116;-68
2023/07/14 06:21:35;;;;;;;18.75;7.45;;;;;;;33.19;38.50;96446.38;5114444;28;20047;-67
2023/07/14 06:24:03;;;;;;;15.20;7.68;;;;;;;33.41;39.69;96447.84;5114395;28;20078;-67
2023/07/14 06:26:30;;;;;;;15.02;7.60;;;;;;;33.62;38.11;96443.31;5114336;28;20051;-67
2023/07/14 06:28:57;;;;;;;13.57;7.18;;;;;;;33.73;37.76;96439.16;5114427;28;20071;-67
2023/07/14 06:31:25;;;;;;;13.55;7.22;;;;;;;33.89;38.39;96443.31;5114301;28;20504;-67
2023/07/14 06:33:52;;;;;;;17.45;7.53;;;;;;;34.20;38.88;96445.59;5114212;28;20424;-68
2023/07/14 06:36:19;;;;;;;20.60;8.30;;;;;;;34.30;38.11;96454.13;5113535;28;20055;-67
2023/07/14 06:38:47;;;;;;;13.77;7.45;;;;;;;34.24;36.80;96442.25;5114175;28;20118;-68
2023/07/14 06:41:14;;;;;;;26.27;8.25;;;;;;;34.14;38.12;96450.84;5114081;28;20116;-68
2023/07/14 06:43:42;;;;;;;16.08;7.60;;;;;;;34.40;37.53;96443.66;5113999;28;20079;-67
2023/07/14 06:46:09;;;;;;;20.80;7.75;;;;;;;34.50;37.88;96451.38;5113840;28;20043;-67
2023/07/14 06:48:38;;;;;;;14.80;7.68;;;;;;;34.35;38.23;96443.47;5113855;28;20044;-67
2023/07/14 06:51:05;;;;;;;19.05;8.32;;;;;;;34.58;37.30;96449.47;5113922;28;20048;-67
2023/07/14 06:53:35;;;;;;;20.15;8.60;;;;;;;34.54;37.62;96447.16;5113950;28;20043;-67
2023/07/14 06:56:02;;;;;;;14.73;7.78;;;;;;;34.75;37.80;96453.38;5113688;28;20048;-68
2023/07/14 06:58:29;;;;;;;12.48;8.30;;;;;;;34.97;37.88;96453.06;5113874;28;20043;-67
2023/07/14 07:00:56;;;;;;;14.63;7.10;;;;;;;35.03;37.55;96448.63;5113737;28;20044;-67
2023/07/14 07:03:24;;;;;;;16.75;7.45;;;;;;;34.95;36.35;96448.91;5113839;28;20451;-68
2023/07/14 07:05:53;;;;;;;19.90;8.38;;;;;;;35.08;36.71;96456.13;5113763;28;20411;-68
2023/07/14 07:08:21;;;;;;;13.43;7.72;;;;;;;34.95;37.47;96460.59;5113607;28;20516;-68
2023/07/14 07:10:49;;;;;;;15.82;8.25;;;;;;;34.90;37.48;96466.69;5113706;28;20051;-68
2023/07/14 07:13:16;;;;;;;18.30;8.45;;;;;;;35.15;38.44;96476.78;5113691;28;20055;-68
2023/07/14 07:15:44;;;;;;;24.58;8.40;;;;;;;35.42;38.69;96478.53;5113491;28;20489;-69
2023/07/14 07:18:11;;;;;;;18.80;8.10;;;;;;;35.80;37.26;96482.28;5113588;28;20083;-67
2023/07/14 07:20:42;;;;;;;19.13;7.93;;;;;;;35.86;35.89;96494.16;5113577;28;20039;-68
2023/07/14 07:23:11;;;;;;;18.08;8.80;;;;;;;35.84;36.07;96494.38;5113541;28;20423;-67
2023/07/14 07:25:38;;;;;;;14.85;8.30;;;;;;;35.87;35.90;96499.38;5113418;28;20071;-67
2023/07/14 07:28:05;;;;;;;17.20;8.60;;;;;;;35.84;35.72;96491.66;5113458;28;20044;-67
2023/07/14 07:30:32;;;;;;;23.67;9.25;;;;;;;35.96;34.80;96489.03;5113571;28;20079;-68
2023/07/14 07:33:00;;;;;;;19.52;9.00;;;;;;;36.12;36.42;96484.91;5113639;28;20126;-68
2023/07/14 07:35:27;;;;;;;17.88;9.05;;;;;;;36.35;35.71;96491.63;5113412;28;20088;-68
2023/07/14 07:37:55;;;;;;;14.18;8.82;;;;;;;36.48;35.05;96495.28;5113412;28;20480;-68
2023/07/14 07:40:23;;;;;;;24.52;10.15;;;;;;;36.46;36.08;96491.94;5113388;28;20087;-68
2023/07/14 07:42:50;;;;;;;22.48;9.57;;;;;;;36.54;35.83;96486.22;5113352;28;20048;-68
2023/07/14 07:45:18;;;;;;;20.48;9.57;;;;;;;36.59;35.02;96480.91;5113267;28;20043;-68
2023/07/14 07:47:45;;;;;;;18.75;9.70;;;;;;;36.79;33.88;96486.16;5114232;28;20044;-68
2023/07/14 07:50:13;;;;;;;12.65;9.13;;;;;;;36.45;33.54;96474.81;5117392;28;20131;-68
2023/07/14 07:52:40;;;;;;;13.60;9.73;;;;;;;35.77;36.17;96478.13;5117484;27;20056;-68
2023/07/14 07:55:08;;;;;;;18.77;9.82;;;;;;;35.38;36.15;96469.16;5117274;28;20432;-68
2023/07/14 07:57:37;;;;;;;19.67;9.65;;;;;;;34.89;37.78;96469.63;5117277;28;20074;-68
2023/07/14 08:00:06;;;;;;;16.52;9.93;;;;;;;34.86;39.01;96464.63;5117112;28;20047;-68
2023/07/14 08:02:35;;;;;;;15.77;9.32;;;;;;;35.24;36.83;96469.25;5115958;28;20528;-68
2023/07/14 08:05:02;;;;;;;21.73;10.13;;;;;;;35.40;39.29;96454.28;5117104;28;20481;-68
2023/07/14 08:07:30;;;;;;;16.85;9.48;;;;;;;35.72;36.11;96466.25;5116855;28;20044;-69
2023/07/14 08:09:57;;;;;;;20.30;9.43;;;;;;;36.12;33.74;96460.41;5116891;28;20142;-69
2023/07/14 08:12:25;;;;;;;14.38;8.70;;;;;;;36.33;32.58;96461.09;5117102;28;20553;-69
2023/07/14 08:14:55;;;;;;;15.82;9.82;;;;;;;36.08;33.03;96458.41;5116913;28;20055;-68
2023/07/14 08:17:25;;;;;;;16.23;8.93;;;;;;;35.99;35.32;96460.56;5116832;28;20050;-69
2023/07/14 08:19:52;;;;;;;15.60;9.68;;;;;;;36.14;31.85;96460.19;5116863;28;20044;-68
2023/07/14 08:22:21;;;;;;;19.52;9.50;;;;;;;36.20;33.00;96459.34;5116744;28;20130;-68
2023/07/14 08:24:48;;;;;;;18.90;8.93;;;;;;;36.22;31.71;96446.34;5116663;28;20083;-68
2023/07/14 08:27:15;;;;;;;18.23;9.15;;;;;;;36.40;32.55;96453.69;5116931;28;20075;-68
2023/07/14 08:29:42;;;;;;;15.68;9.38;;;;;;;36.79;31.68;96461.66;5116591;28;20123;-68
2023/07/14 08:32:11;;;;;;;24.70;9.82;;;;;;;37.03;30.58;96455.47;5116591;28;20497;-68
2023/07/14 08:34:39;;;;;;;18.30;9.30;;;;;;;37.39;32.34;96459.19;5116446;28;20044;-68
2023/07/14 08:37:07;;;;;;;20.83;9.40;;;;;;;37.47;31.13;96462.66;5116656;28;20450;-68
2023/07/14 08:39:34;;;;;;;15.77;8.23;;;;;;;37.55;30.79;96465.03;5116541;28;20051;-68
2023/07/14 08:42:11;;;;;;;22.92;9.68;;;;;;;37.72;30.02;96467.94;5116381;28;20559;-69
2023/07/14 08:44:55;;;;;;;16.42;9.57;;;;;;;37.94;32.56;96464.63;5116388;28;20048;-69
2023/07/14 08:47:33;;;;;;;15.52;8.60;;;;;;;38.07;31.40;96466.28;5116276;28;20044;-68
2023/07/14 08:50:04;;;;;;;18.02;9.32;;;;;;;37.97;31.27;96464.16;5116211;28;20064;-69
2023/07/14 08:52:34;;;;;;;15.88;9.18;;;;;;;37.99;28.70;96467.50;5116270;28;20051;-68
2023/07/14 08:55:07;;;;;;;14.82;9.68;;;;;;;37.70;31.84;96469.22;5116316;28;20119;-68
2023/07/14 08:57:44;;;;;;;19.88;9.68;;;;;;;37.65;30.97;96478.91;5116138;28;20059;-68
2023/07/14 09:00:17;;;;;;;17.63;9.65;;;;;;;37.63;28.35;96472.03;5115042;28;20044;-68
2023/07/14 09:02:56;;;;;;;16.70;9.35;;;;;;;37.52;29.04;96469.06;5115973;28;20073;-68
2023/07/14 09:05:27;;;;;;;18.40;9.25;;;;;;;37.34;29.10;96474.56;5115883;27;20059;-69
2023/07/14 09:07:56;;;;;;;17.98;9.65;;;;;;;37.05;29.67;96473.25;5115801;28;20047;-69
2023/07/14 09:10:35;;;;;;;16.02;11.15;;;;;;;36.93;29.23;96475.09;5115811;28;20453;-68
2023/07/14 09:13:14;;;;;;;18.17;10.05;;;;;;;37.10;30.14;96464.38;5115916;28;20052;-68
2023/07/14 09:15:43;;;;;;;17.88;10.60;;;;;;;37.41;30.82;96469.88;5116043;28;20051;-68
2023/07/14 09:18:25;;;;;;;19.38;9.35;;;;;;;37.47;27.89;96465.38;5115948;28;20047;-68
2023/07/14 09:21:13;;;;;;;16.77;9.82;;;;;;;37.20;29.40;96469.28;5115646;28;20052;-68
2023/07/14 09:23:59;;;;;;;22.10;10.00;;;;;;;37.10;29.56;96463.53;5115485;28;20467;-69
2023/07/14 09:26:32;;;;;;;20.52;10.10;;;;;;;37.20;29.31;96473.94;5115674;28;20414;-68
2023/07/14 09:29:01;;;;;;;18.52;9.70;;;;;;;37.35;29.11;96465.34;5115528;28;20113;-69
2023/07/14 09:31:41;;;;;;;21.35;10.18;;;;;;;37.41;30.04;96469.88;5115407;28;20071;-68
2023/07/14 09:34:16;;;;;;;14.95;9.23;;;;;;;37.17;29.40;96459.66;5115466;28;20051;-68
2023/07/14 09:36:43;;;;;;;15.63;10.13;;;;;;;37.28;29.86;96470.88;5115305;28;20507;-69
2023/07/14 09:39:18;;;;;;;14.25;9.88;;;;;;;37.29;28.94;96475.28;5115301;27;20039;-68
2023/07/14 09:41:46;;;;;;;17.75;10.45;;;;;;;37.37;28.60;96471.38;5115459;28;20108;-68
2023/07/14 09:44:14;;;;;;;14.27;10.15;;;;;;;37.54;30.46;96472.38;5115463;28;20094;-68
2023/07/14 09:46:47;;;;;;;14.45;10.23;;;;;;;37.72;29.48;96470.66;5115442;28;20190;-69
2023/07/14 09:49:25;;;;;;;19.65;9.43;;;;;;;37.62;27.36;96473.91;5115177;28;20070;-68
2023/07/14 09:52:10;;;;;;;19.73;9.85;;;;;;;37.32;28.63;96474.81;5115027;28;20043;-68
2023/07/14 09:54:44;;;;;;;17.48;10.02;;;;;;;37.36;28.52;96475.16;5114926;28;20453;-69
2023/07/14 09:57:13;;;;;;;21.08;10.35;;;;;;;37.44;29.05;96469.41;5114883;27;20137;-68
2023/07/14 09:59:56;;;;;;;20.25;10.13;;;;;;;37.38;29.22;96462.97;5115031;28;20048;-68
2023/07/14 10:02:29;;;;;;;15.07;10.50;;;;;;;37.55;28.25;96459.56;5113124;28;20156;-68
2023/07/14 10:05:04;;;;;;;21.50;10.15;;;;;;;37.42;29.11;96463.34;5115015;28;20055;-69
2023/07/14 10:07:40;;;;;;;22.48;11.10;;;;;;;37.38;26.66;96456.69;5114668;28;20134;-68
2023/07/14 10:10:14;;;;;;;24.20;11.07;;;;;;;36.88;26.74;96462.16;5114657;28;20048;-68
2023/07/14 10:12:50;;;;;;;16.60;11.25;;;;;;;36.86;29.45;96458.00;5115005;28;20045;-69
2023/07/14 10:15:30;;;;;;;19.60;10.30;;;;;;;36.92;27.96;96455.19;5114617;27;20047;-69
2023/07/14 10:17:58;;;;;;;21.90;10.90;;;;;;;36.77;29.88;96455.59;5114526;28;20530;-69
2023/07/14 10:20:29;;;;;;;20.85;10.80;;;;;;;36.85;30.41;96459.06;5114432;28;20122;-69
2023/07/14 10:22:58;;;;;;;19.70;10.82;;;;;;;37.06;30.56;96444.13;5114571;28;20056;-69
2023/07/14 10:25:28;;;;;;;22.25;11.25;;;;;;;37.13;28.82;96450.28;5114525;28;20043;-68
2023/07/14 10:28:05;;;;;;;19.15;10.60;;;;;;;37.03;29.22;96448.13;5114352;28;20494;-68
2023/07/14 10:30:59;;;;;;;13.75;9.38;;;;;;;37.22;29.65;96436.34;5114330;28;20047;-68
2023/07/14 10:33:31;;;;;;;22.40;10.32;;;;;;;37.53;29.23;96431.72;5114380;28;20040;-69
2023/07/14 10:36:04;;;;;;;21.92;11.02;;;;;;;37.76;28.47;96438.28;5114276;28;20093;-68
2023/07/14 10:38:37;;;;;;;19.73;9.05;;;;;;;37.76;28.69;96438.28;5114169;28;20425;-68
2023/07/14 10:41:07;;;;;;;22.65;10.20;;;;;;;37.75;28.90;96434.75;5114170;28;20051;-68
2023/07/14 10:43:39;;;;;;;18.77;9.82;;;;;;;37.92;28.38;96423.94;5114064;28;20047;-69
2023/07/14 10:46:12;;;;;;;14.93;9.00;;;;;;;37.98;29.50;96424.88;5114041;28;20519;-69
2023/07/14 10:48:43;;;;;;;18.38;10.88;;;;;;;38.01;29.92;96423.59;5113906;28;20404;-68
2023/07/14 10:51:33;;;;;;;15.60;10.20;;;;;;;37.98;28.63;96415.88;5113951;28;20146;-69
2023/07/14 10:54:07;;;;;;;20.35;9.70;;;;;;;37.86;30.66;96410.44;5114178;28;20129;-68
2023/07/14 10:56:39;;;;;;;19.17;10.43;;;;;;;37.38;29.65;96421.25;5113814;28;20047;-68
2023/07/14 10:59:15;;;;;;;13.65;9.45;;;;;;;36.95;29.89;96417.66;5114025;28;20043;-68
2023/07/14 11:01:58;;;;;;;17.08;9.73;;;;;;;37.11;32.37;96414.25;5113912;28;20044;-68
2023/07/14 11:04:30;;;;;;;30.95;10.02;;;;;;;37.08;32.10;96408.47;5113908;28;20170;-69
2023/07/14 11:07:00;;;;;;;16.88;10.05;;;;;;;37.08;33.37;96400.28;5113541;28;20104;-68
2023/07/14 11:09:29;;;;;;;18.58;9.35;;;;;;;37.19;33.44;96406.88;5113691;28;20079;-69
2023/07/14 11:12:09;;;;;;;19.52;9.60;;;;;;;37.26;31.03;96405.69;5113662;28;20048;-68
2023/07/14 11:14:46;;;;;;;15.18;9.45;;;;;;;37.36;29.65;96407.88;5113599;28;20039;-69
2023/07/14 11:17:23;;;;;;;20.20;9.25;;;;;;;37.31;28.53;96398.72;5113397;28;20051;-69
2023/07/14 11:20:09;;;;;;;23.15;10.43;;;;;;;36.92;30.18;96395.25;5113820;28;20071;-69
2023/07/14 11:22:54;;;;;;;17.58;9.35;;;;;;;36.75;30.41;96386.06;5113090;28;20083;-69
2023/07/14 11:25:25;;;;;;;14.63;8.88;;;;;;;36.75;31.93;96391.53;5113532;28;20104;-69
2023/07/14 11:28:01;;;;;;;19.70;9.68;;;;;;;36.68;32.17;96388.84;5113925;28;20048;-69
2023/07/14 11:30:32;;;;;;;18.25;9.95;;;;;;;36.48;32.90;96392.66;5113481;28;20109;-69
2023/07/14 11:33:07;;;;;;;17.20;10.45;;;;;;;36.21;34.08;96381.25;5113391;28;20054;-69
2023/07/14 11:35:36;;;;;;;12.82;10.00;;;;;;;36.09;34.16;96395.59;5113394;28;20443;-68
2023/07/14 11:38:33;;;;;;;19.25;10.93;;;;;;;35.98;34.10;96397.16;5113299;28;20088;-69